sensor_id;sensor_type;location;lat;lon;timestamp;P1;durP1;ratioP1;P2;durP2;ratioP2
22786;SDS011;63134;52.020;4.714;2023-07-16T00:01:03;13.00;;;3.75;;
22786;SDS011;63134;52.020;4.714;2023-07-16T00:03:49;9.60;;;3.75;;
22786;SDS011;63134;52.020;4.714;2023-07-16T00:06:35;9.65;;;3.58;;
22786;SDS011;63134;52.020;4.714;2023-07-16T00:09:21;7.60;;;3.78;;
22786;SDS011;63134;52.020;4.714;2023-07-16T00:12:06;11.45;;;3.45;;
22786;SDS011;63134;52.020;4.714;2023-07-16T00:14:53;12.95;;;4.35;;
22786;SDS011;63134;52.020;4.714;2023-07-16T00:17:40;12.60;;;3.50;;
22786;SDS011;63134;52.020;4.714;2023-07-16T00:20:26;6.85;;;3.20;;
22786;SDS011;63134;52.020;4.714;2023-07-16T00:23:12;8.32;;;3.50;;
22786;SDS011;63134;52.020;4.714;2023-07-16T00:25:58;9.40;;;3.10;;
22786;SDS011;63134;52.020;4.714;2023-07-16T00:28:43;9.68;;;3.80;;
22786;SDS011;63134;52.020;4.714;2023-07-16T00:31:29;13.02;;;3.75;;
22786;SDS011;63134;52.020;4.714;2023-07-16T00:34:15;13.00;;;4.03;;
22786;SDS011;63134;52.020;4.714;2023-07-16T00:37:02;9.32;;;3.80;;
22786;SDS011;63134;52.020;4.714;2023-07-16T00:39:48;10.50;;;3.40;;
22786;SDS011;63134;52.020;4.714;2023-07-16T00:42:34;9.45;;;4.00;;
22786;SDS011;63134;52.020;4.714;2023-07-16T00:45:19;9.07;;;3.50;;
22786;SDS011;63134;52.020;4.714;2023-07-16T00:48:05;14.77;;;4.40;;
22786;SDS011;63134;52.020;4.714;2023-07-16T00:50:52;13.48;;;4.28;;
22786;SDS011;63134;52.020;4.714;2023-07-16T00:53:39;13.55;;;4.28;;
22786;SDS011;63134;52.020;4.714;2023-07-16T00:56:26;9.60;;;4.13;;
22786;SDS011;63134;52.020;4.714;2023-07-16T00:59:12;13.40;;;4.70;;
22786;SDS011;63134;52.020;4.714;2023-07-16T01:01:57;9.38;;;4.00;;
22786;SDS011;63134;52.020;4.714;2023-07-16T01:04:43;10.98;;;4.22;;
22786;SDS011;63134;52.020;4.714;2023-07-16T01:07:29;15.48;;;4.97;;
22786;SDS011;63134;52.020;4.714;2023-07-16T01:10:17;10.73;;;4.57;;
22786;SDS011;63134;52.020;4.714;2023-07-16T01:13:07;13.57;;;4.82;;
22786;SDS011;63134;52.020;4.714;2023-07-16T01:15:53;18.00;;;4.72;;
22786;SDS011;63134;52.020;4.714;2023-07-16T01:18:39;9.40;;;5.25;;
22786;SDS011;63134;52.020;4.714;2023-07-16T01:21:29;13.80;;;5.28;;
22786;SDS011;63134;52.020;4.714;2023-07-16T01:24:39;11.93;;;4.93;;
22786;SDS011;63134;52.020;4.714;2023-07-16T01:27:44;14.70;;;5.85;;
22786;SDS011;63134;52.020;4.714;2023-07-16T01:30:38;10.85;;;5.22;;
22786;SDS011;63134;52.020;4.714;2023-07-16T01:33:29;13.60;;;5.07;;
22786;SDS011;63134;52.020;4.714;2023-07-16T01:36:16;9.68;;;5.10;;
22786;SDS011;63134;52.020;4.714;2023-07-16T01:39:03;13.43;;;5.80;;
22786;SDS011;63134;52.020;4.714;2023-07-16T01:41:48;12.88;;;5.70;;
22786;SDS011;63134;52.020;4.714;2023-07-16T01:44:34;11.85;;;5.88;;
22786;SDS011;63134;52.020;4.714;2023-07-16T01:47:22;12.80;;;6.18;;
22786;SDS011;63134;52.020;4.714;2023-07-16T01:50:19;14.35;;;5.80;;
22786;SDS011;63134;52.020;4.714;2023-07-16T01:53:05;15.13;;;6.45;;
22786;SDS011;63134;52.020;4.714;2023-07-16T01:55:51;15.13;;;5.75;;
22786;SDS011;63134;52.020;4.714;2023-07-16T01:58:41;15.85;;;6.05;;
22786;SDS011;63134;52.020;4.714;2023-07-16T02:01:26;13.07;;;6.07;;
22786;SDS011;63134;52.020;4.714;2023-07-16T02:04:15;12.20;;;5.63;;
22786;SDS011;63134;52.020;4.714;2023-07-16T02:07:01;15.75;;;5.80;;
22786;SDS011;63134;52.020;4.714;2023-07-16T02:09:46;16.88;;;6.50;;
22786;SDS011;63134;52.020;4.714;2023-07-16T02:12:32;16.73;;;6.72;;
22786;SDS011;63134;52.020;4.714;2023-07-16T02:15:19;10.77;;;5.55;;
22786;SDS011;63134;52.020;4.714;2023-07-16T02:18:05;16.42;;;6.30;;
22786;SDS011;63134;52.020;4.714;2023-07-16T02:20:53;16.63;;;6.20;;
22786;SDS011;63134;52.020;4.714;2023-07-16T02:23:40;15.35;;;6.18;;
22786;SDS011;63134;52.020;4.714;2023-07-16T02:26:26;14.85;;;5.90;;
22786;SDS011;63134;52.020;4.714;2023-07-16T02:29:11;16.52;;;6.65;;
22786;SDS011;63134;52.020;4.714;2023-07-16T02:31:57;13.65;;;6.85;;
22786;SDS011;63134;52.020;4.714;2023-07-16T02:34:42;18.17;;;7.32;;
22786;SDS011;63134;52.020;4.714;2023-07-16T02:37:28;18.10;;;7.28;;
22786;SDS011;63134;52.020;4.714;2023-07-16T02:40:14;12.75;;;6.15;;
22786;SDS011;63134;52.020;4.714;2023-07-16T02:43:02;15.93;;;6.22;;
22786;SDS011;63134;52.020;4.714;2023-07-16T02:45:47;12.77;;;5.65;;
22786;SDS011;63134;52.020;4.714;2023-07-16T02:48:32;14.07;;;7.00;;
22786;SDS011;63134;52.020;4.714;2023-07-16T02:51:19;13.32;;;6.05;;
22786;SDS011;63134;52.020;4.714;2023-07-16T02:54:05;14.05;;;6.40;;
22786;SDS011;63134;52.020;4.714;2023-07-16T02:56:50;15.93;;;6.43;;
22786;SDS011;63134;52.020;4.714;2023-07-16T02:59:36;11.70;;;5.22;;
22786;SDS011;63134;52.020;4.714;2023-07-16T03:02:22;11.93;;;5.35;;
22786;SDS011;63134;52.020;4.714;2023-07-16T03:05:08;10.98;;;4.97;;
22786;SDS011;63134;52.020;4.714;2023-07-16T03:07:54;17.30;;;5.47;;
22786;SDS011;63134;52.020;4.714;2023-07-16T03:10:40;11.20;;;5.13;;
22786;SDS011;63134;52.020;4.714;2023-07-16T03:13:27;10.02;;;4.78;;
22786;SDS011;63134;52.020;4.714;2023-07-16T03:16:13;11.95;;;5.57;;
22786;SDS011;63134;52.020;4.714;2023-07-16T03:19:02;9.55;;;4.80;;
22786;SDS011;63134;52.020;4.714;2023-07-16T03:21:48;13.13;;;5.13;;
22786;SDS011;63134;52.020;4.714;2023-07-16T03:24:35;10.70;;;5.32;;
22786;SDS011;63134;52.020;4.714;2023-07-16T03:27:23;10.65;;;5.35;;
22786;SDS011;63134;52.020;4.714;2023-07-16T03:30:14;14.35;;;5.38;;
22786;SDS011;63134;52.020;4.714;2023-07-16T03:33:00;15.85;;;5.53;;
22786;SDS011;63134;52.020;4.714;2023-07-16T03:35:48;14.80;;;5.10;;
22786;SDS011;63134;52.020;4.714;2023-07-16T03:38:36;10.30;;;4.95;;
22786;SDS011;63134;52.020;4.714;2023-07-16T03:41:21;9.80;;;5.13;;
22786;SDS011;63134;52.020;4.714;2023-07-16T03:44:06;13.20;;;5.60;;
22786;SDS011;63134;52.020;4.714;2023-07-16T03:46:53;13.90;;;5.57;;
22786;SDS011;63134;52.020;4.714;2023-07-16T03:49:41;12.48;;;5.55;;
22786;SDS011;63134;52.020;4.714;2023-07-16T03:52:28;11.55;;;5.82;;
22786;SDS011;63134;52.020;4.714;2023-07-16T03:55:14;18.55;;;6.78;;
22786;SDS011;63134;52.020;4.714;2023-07-16T03:58:00;12.73;;;5.93;;
22786;SDS011;63134;52.020;4.714;2023-07-16T04:00:46;10.95;;;6.13;;
22786;SDS011;63134;52.020;4.714;2023-07-16T04:03:32;13.18;;;5.90;;
22786;SDS011;63134;52.020;4.714;2023-07-16T04:06:18;11.13;;;6.30;;
22786;SDS011;63134;52.020;4.714;2023-07-16T04:09:04;14.07;;;6.38;;
22786;SDS011;63134;52.020;4.714;2023-07-16T04:11:51;14.02;;;5.80;;
22786;SDS011;63134;52.020;4.714;2023-07-16T04:14:37;18.75;;;5.90;;
22786;SDS011;63134;52.020;4.714;2023-07-16T04:17:22;8.38;;;5.20;;
22786;SDS011;63134;52.020;4.714;2023-07-16T04:20:08;12.43;;;5.85;;
22786;SDS011;63134;52.020;4.714;2023-07-16T04:22:54;14.00;;;6.55;;
22786;SDS011;63134;52.020;4.714;2023-07-16T04:25:40;15.85;;;6.63;;
22786;SDS011;63134;52.020;4.714;2023-07-16T04:28:26;12.60;;;6.28;;
22786;SDS011;63134;52.020;4.714;2023-07-16T04:31:11;10.38;;;6.10;;
22786;SDS011;63134;52.020;4.714;2023-07-16T04:33:57;14.82;;;5.75;;
22786;SDS011;63134;52.020;4.714;2023-07-16T04:36:42;14.65;;;6.75;;
22786;SDS011;63134;52.020;4.714;2023-07-16T04:39:31;14.80;;;6.53;;
22786;SDS011;63134;52.020;4.714;2023-07-16T04:42:17;14.27;;;6.50;;
22786;SDS011;63134;52.020;4.714;2023-07-16T04:45:06;12.40;;;6.53;;
22786;SDS011;63134;52.020;4.714;2023-07-16T04:47:51;16.60;;;7.72;;
22786;SDS011;63134;52.020;4.714;2023-07-16T04:50:38;13.95;;;6.88;;
22786;SDS011;63134;52.020;4.714;2023-07-16T04:53:23;13.70;;;6.20;;
22786;SDS011;63134;52.020;4.714;2023-07-16T04:56:12;15.70;;;6.32;;
22786;SDS011;63134;52.020;4.714;2023-07-16T04:58:59;13.32;;;6.43;;
22786;SDS011;63134;52.020;4.714;2023-07-16T05:01:45;13.20;;;5.93;;
22786;SDS011;63134;52.020;4.714;2023-07-16T05:04:31;13.25;;;6.00;;
22786;SDS011;63134;52.020;4.714;2023-07-16T05:07:17;11.60;;;5.75;;
22786;SDS011;63134;52.020;4.714;2023-07-16T05:10:05;10.88;;;5.28;;
22786;SDS011;63134;52.020;4.714;2023-07-16T05:12:52;13.48;;;5.93;;
22786;SDS011;63134;52.020;4.714;2023-07-16T05:15:38;12.55;;;6.50;;
22786;SDS011;63134;52.020;4.714;2023-07-16T05:18:23;11.25;;;5.35;;
22786;SDS011;63134;52.020;4.714;2023-07-16T05:21:09;9.73;;;5.32;;
22786;SDS011;63134;52.020;4.714;2023-07-16T05:23:54;11.07;;;5.55;;
22786;SDS011;63134;52.020;4.714;2023-07-16T05:26:40;9.68;;;5.25;;
22786;SDS011;63134;52.020;4.714;2023-07-16T05:29:25;11.00;;;5.57;;
22786;SDS011;63134;52.020;4.714;2023-07-16T05:32:11;10.07;;;5.90;;
22786;SDS011;63134;52.020;4.714;2023-07-16T05:34:57;16.77;;;6.65;;
22786;SDS011;63134;52.020;4.714;2023-07-16T05:37:47;11.90;;;6.47;;
22786;SDS011;63134;52.020;4.714;2023-07-16T05:40:36;12.23;;;6.32;;
22786;SDS011;63134;52.020;4.714;2023-07-16T05:43:21;10.52;;;6.68;;
22786;SDS011;63134;52.020;4.714;2023-07-16T05:46:07;12.05;;;5.55;;
22786;SDS011;63134;52.020;4.714;2023-07-16T05:48:52;13.35;;;5.28;;
22786;SDS011;63134;52.020;4.714;2023-07-16T05:51:38;13.38;;;6.13;;
22786;SDS011;63134;52.020;4.714;2023-07-16T05:54:24;12.98;;;6.03;;
22786;SDS011;63134;52.020;4.714;2023-07-16T05:57:09;21.52;;;6.43;;
22786;SDS011;63134;52.020;4.714;2023-07-16T05:59:55;15.02;;;7.25;;
22786;SDS011;63134;52.020;4.714;2023-07-16T06:02:41;9.50;;;6.18;;
22786;SDS011;63134;52.020;4.714;2023-07-16T06:05:28;13.63;;;5.97;;
22786;SDS011;63134;52.020;4.714;2023-07-16T06:08:17;10.13;;;6.32;;
22786;SDS011;63134;52.020;4.714;2023-07-16T06:11:06;13.27;;;6.20;;
22786;SDS011;63134;52.020;4.714;2023-07-16T06:13:52;14.57;;;6.53;;
22786;SDS011;63134;52.020;4.714;2023-07-16T06:16:39;13.88;;;6.38;;
22786;SDS011;63134;52.020;4.714;2023-07-16T06:19:24;14.07;;;6.68;;
22786;SDS011;63134;52.020;4.714;2023-07-16T06:22:10;12.38;;;6.53;;
22786;SDS011;63134;52.020;4.714;2023-07-16T06:24:58;11.00;;;5.95;;
22786;SDS011;63134;52.020;4.714;2023-07-16T06:27:44;14.95;;;6.47;;
22786;SDS011;63134;52.020;4.714;2023-07-16T06:30:30;12.80;;;6.38;;
22786;SDS011;63134;52.020;4.714;2023-07-16T06:33:17;12.07;;;6.70;;
22786;SDS011;63134;52.020;4.714;2023-07-16T06:36:03;14.25;;;6.50;;
22786;SDS011;63134;52.020;4.714;2023-07-16T06:38:48;14.65;;;6.53;;
22786;SDS011;63134;52.020;4.714;2023-07-16T06:41:34;13.52;;;6.28;;
22786;SDS011;63134;52.020;4.714;2023-07-16T06:44:19;12.23;;;6.07;;
22786;SDS011;63134;52.020;4.714;2023-07-16T06:47:06;12.20;;;6.38;;
22786;SDS011;63134;52.020;4.714;2023-07-16T06:49:52;12.57;;;6.15;;
22786;SDS011;63134;52.020;4.714;2023-07-16T06:52:37;11.45;;;6.65;;
22786;SDS011;63134;52.020;4.714;2023-07-16T06:55:23;15.18;;;6.55;;
22786;SDS011;63134;52.020;4.714;2023-07-16T06:58:13;15.50;;;6.28;;
22786;SDS011;63134;52.020;4.714;2023-07-16T07:00:59;11.63;;;5.78;;
22786;SDS011;63134;52.020;4.714;2023-07-16T07:03:45;11.82;;;5.82;;
22786;SDS011;63134;52.020;4.714;2023-07-16T07:06:31;10.85;;;6.10;;
22786;SDS011;63134;52.020;4.714;2023-07-16T07:09:16;10.95;;;6.65;;
22786;SDS011;63134;52.020;4.714;2023-07-16T07:12:02;13.50;;;5.70;;
22786;SDS011;63134;52.020;4.714;2023-07-16T07:14:48;12.90;;;5.90;;
22786;SDS011;63134;52.020;4.714;2023-07-16T07:17:34;13.38;;;7.28;;
22786;SDS011;63134;52.020;4.714;2023-07-16T07:20:20;12.35;;;6.53;;
22786;SDS011;63134;52.020;4.714;2023-07-16T07:23:05;10.13;;;5.95;;
22786;SDS011;63134;52.020;4.714;2023-07-16T07:25:52;10.13;;;6.28;;
22786;SDS011;63134;52.020;4.714;2023-07-16T07:28:38;13.98;;;6.70;;
22786;SDS011;63134;52.020;4.714;2023-07-16T07:31:23;12.23;;;6.43;;
22786;SDS011;63134;52.020;4.714;2023-07-16T07:34:09;12.93;;;6.25;;
22786;SDS011;63134;52.020;4.714;2023-07-16T07:36:57;14.52;;;7.40;;
22786;SDS011;63134;52.020;4.714;2023-07-16T07:39:43;12.85;;;7.22;;
22786;SDS011;63134;52.020;4.714;2023-07-16T07:42:30;11.63;;;6.78;;
22786;SDS011;63134;52.020;4.714;2023-07-16T07:45:16;12.82;;;6.60;;
22786;SDS011;63134;52.020;4.714;2023-07-16T07:48:01;13.82;;;6.93;;
22786;SDS011;63134;52.020;4.714;2023-07-16T07:50:48;14.70;;;7.03;;
22786;SDS011;63134;52.020;4.714;2023-07-16T07:53:37;12.80;;;7.03;;
22786;SDS011;63134;52.020;4.714;2023-07-16T07:56:22;13.27;;;6.82;;
22786;SDS011;63134;52.020;4.714;2023-07-16T07:59:08;13.38;;;6.65;;
22786;SDS011;63134;52.020;4.714;2023-07-16T08:01:53;13.13;;;6.35;;
22786;SDS011;63134;52.020;4.714;2023-07-16T08:04:39;12.18;;;6.50;;
22786;SDS011;63134;52.020;4.714;2023-07-16T08:07:25;12.23;;;7.15;;
22786;SDS011;63134;52.020;4.714;2023-07-16T08:10:11;13.90;;;6.38;;
22786;SDS011;63134;52.020;4.714;2023-07-16T08:12:56;12.40;;;6.47;;
22786;SDS011;63134;52.020;4.714;2023-07-16T08:15:45;10.20;;;6.43;;
22786;SDS011;63134;52.020;4.714;2023-07-16T08:18:30;12.55;;;5.72;;
22786;SDS011;63134;52.020;4.714;2023-07-16T08:21:16;11.07;;;6.35;;
22786;SDS011;63134;52.020;4.714;2023-07-16T08:24:05;13.35;;;6.88;;
22786;SDS011;63134;52.020;4.714;2023-07-16T08:26:51;11.57;;;6.90;;
22786;SDS011;63134;52.020;4.714;2023-07-16T08:29:37;9.77;;;5.60;;
22786;SDS011;63134;52.020;4.714;2023-07-16T08:32:23;8.98;;;6.25;;
22786;SDS011;63134;52.020;4.714;2023-07-16T08:35:08;11.20;;;6.45;;
22786;SDS011;63134;52.020;4.714;2023-07-16T08:38:00;11.52;;;6.43;;
22786;SDS011;63134;52.020;4.714;2023-07-16T08:40:49;11.68;;;5.40;;
22786;SDS011;63134;52.020;4.714;2023-07-16T08:43:35;9.85;;;6.25;;
22786;SDS011;63134;52.020;4.714;2023-07-16T08:46:21;15.48;;;6.63;;
22786;SDS011;63134;52.020;4.714;2023-07-16T08:49:07;16.05;;;6.15;;
22786;SDS011;63134;52.020;4.714;2023-07-16T08:51:53;11.60;;;6.10;;
22786;SDS011;63134;52.020;4.714;2023-07-16T08:54:40;14.55;;;6.45;;
22786;SDS011;63134;52.020;4.714;2023-07-16T08:57:26;9.85;;;6.15;;
22786;SDS011;63134;52.020;4.714;2023-07-16T09:00:12;11.93;;;6.65;;
22786;SDS011;63134;52.020;4.714;2023-07-16T09:03:00;10.77;;;5.65;;
22786;SDS011;63134;52.020;4.714;2023-07-16T09:05:47;8.07;;;4.95;;
22786;SDS011;63134;52.020;4.714;2023-07-16T09:08:33;12.73;;;6.00;;
22786;SDS011;63134;52.020;4.714;2023-07-16T09:11:18;12.48;;;5.55;;
22786;SDS011;63134;52.020;4.714;2023-07-16T09:14:07;12.60;;;6.10;;
22786;SDS011;63134;52.020;4.714;2023-07-16T09:16:52;11.65;;;6.15;;
22786;SDS011;63134;52.020;4.714;2023-07-16T09:19:38;10.48;;;5.90;;
22786;SDS011;63134;52.020;4.714;2023-07-16T09:22:26;10.25;;;5.30;;
22786;SDS011;63134;52.020;4.714;2023-07-16T09:25:12;10.55;;;5.45;;
22786;SDS011;63134;52.020;4.714;2023-07-16T09:28:00;11.52;;;5.85;;
22786;SDS011;63134;52.020;4.714;2023-07-16T09:30:48;11.38;;;4.90;;
22786;SDS011;63134;52.020;4.714;2023-07-16T09:33:34;9.30;;;5.47;;
22786;SDS011;63134;52.020;4.714;2023-07-16T09:36:24;11.90;;;5.72;;
22786;SDS011;63134;52.020;4.714;2023-07-16T09:39:10;9.93;;;5.00;;
22786;SDS011;63134;52.020;4.714;2023-07-16T09:41:55;9.75;;;4.82;;
22786;SDS011;63134;52.020;4.714;2023-07-16T09:44:51;12.55;;;4.88;;
22786;SDS011;63134;52.020;4.714;2023-07-16T09:47:38;9.85;;;4.72;;
22786;SDS011;63134;52.020;4.714;2023-07-16T09:50:24;11.18;;;5.00;;
22786;SDS011;63134;52.020;4.714;2023-07-16T09:53:16;10.52;;;5.03;;
22786;SDS011;63134;52.020;4.714;2023-07-16T09:56:05;10.82;;;4.60;;
22786;SDS011;63134;52.020;4.714;2023-07-16T09:58:51;12.77;;;5.28;;
22786;SDS011;63134;52.020;4.714;2023-07-16T10:01:38;11.05;;;5.40;;
22786;SDS011;63134;52.020;4.714;2023-07-16T10:04:25;10.13;;;5.05;;
22786;SDS011;63134;52.020;4.714;2023-07-16T10:07:21;11.80;;;5.63;;
22786;SDS011;63134;52.020;4.714;2023-07-16T10:10:07;10.50;;;5.18;;
22786;SDS011;63134;52.020;4.714;2023-07-16T10:12:58;9.18;;;5.38;;
22786;SDS011;63134;52.020;4.714;2023-07-16T10:15:56;10.55;;;5.38;;
22786;SDS011;63134;52.020;4.714;2023-07-16T10:18:49;8.90;;;4.65;;
22786;SDS011;63134;52.020;4.714;2023-07-16T10:21:38;7.88;;;4.45;;
22786;SDS011;63134;52.020;4.714;2023-07-16T10:24:27;6.43;;;4.25;;
22786;SDS011;63134;52.020;4.714;2023-07-16T10:27:13;14.40;;;4.75;;
22786;SDS011;63134;52.020;4.714;2023-07-16T10:30:00;13.23;;;4.60;;
22786;SDS011;63134;52.020;4.714;2023-07-16T10:32:50;8.18;;;4.45;;
22786;SDS011;63134;52.020;4.714;2023-07-16T10:35:40;10.98;;;4.25;;
22786;SDS011;63134;52.020;4.714;2023-07-16T10:38:41;8.73;;;4.43;;
22786;SDS011;63134;52.020;4.714;2023-07-16T10:41:28;8.02;;;3.47;;
22786;SDS011;63134;52.020;4.714;2023-07-16T10:44:14;8.85;;;3.28;;
22786;SDS011;63134;52.020;4.714;2023-07-16T10:47:00;7.30;;;3.35;;
22786;SDS011;63134;52.020;4.714;2023-07-16T10:49:47;8.40;;;3.75;;
22786;SDS011;63134;52.020;4.714;2023-07-16T10:52:32;7.70;;;3.45;;
22786;SDS011;63134;52.020;4.714;2023-07-16T10:55:18;6.65;;;2.80;;
22786;SDS011;63134;52.020;4.714;2023-07-16T10:58:05;7.10;;;3.45;;
22786;SDS011;63134;52.020;4.714;2023-07-16T11:00:52;8.18;;;3.20;;
22786;SDS011;63134;52.020;4.714;2023-07-16T11:03:37;6.43;;;3.60;;
22786;SDS011;63134;52.020;4.714;2023-07-16T11:06:23;6.60;;;3.35;;
22786;SDS011;63134;52.020;4.714;2023-07-16T11:09:09;7.05;;;3.20;;
22786;SDS011;63134;52.020;4.714;2023-07-16T11:11:54;5.90;;;3.10;;
22786;SDS011;63134;52.020;4.714;2023-07-16T11:14:45;5.57;;;3.10;;
22786;SDS011;63134;52.020;4.714;2023-07-16T11:17:40;7.00;;;3.00;;
22786;SDS011;63134;52.020;4.714;2023-07-16T11:20:25;7.35;;;3.15;;
22786;SDS011;63134;52.020;4.714;2023-07-16T11:23:11;7.13;;;3.08;;
22786;SDS011;63134;52.020;4.714;2023-07-16T11:26:01;6.82;;;3.00;;
22786;SDS011;63134;52.020;4.714;2023-07-16T11:28:49;6.30;;;2.97;;
22786;SDS011;63134;52.020;4.714;2023-07-16T11:31:38;8.68;;;3.58;;
22786;SDS011;63134;52.020;4.714;2023-07-16T11:34:28;8.88;;;3.13;;
22786;SDS011;63134;52.020;4.714;2023-07-16T11:37:13;8.50;;;3.03;;
22786;SDS011;63134;52.020;4.714;2023-07-16T11:40:04;7.38;;;3.00;;
22786;SDS011;63134;52.020;4.714;2023-07-16T11:42:50;8.07;;;2.70;;
22786;SDS011;63134;52.020;4.714;2023-07-16T11:45:36;7.68;;;2.90;;
22786;SDS011;63134;52.020;4.714;2023-07-16T11:48:22;6.47;;;2.67;;
22786;SDS011;63134;52.020;4.714;2023-07-16T11:51:08;9.52;;;2.88;;
22786;SDS011;63134;52.020;4.714;2023-07-16T11:53:55;5.10;;;2.22;;
22786;SDS011;63134;52.020;4.714;2023-07-16T11:56:41;7.82;;;2.78;;
22786;SDS011;63134;52.020;4.714;2023-07-16T11:59:26;7.55;;;2.22;;
22786;SDS011;63134;52.020;4.714;2023-07-16T12:02:12;5.20;;;2.30;;
22786;SDS011;63134;52.020;4.714;2023-07-16T12:04:57;5.78;;;2.33;;
22786;SDS011;63134;52.020;4.714;2023-07-16T12:07:43;3.15;;;1.88;;
22786;SDS011;63134;52.020;4.714;2023-07-16T12:10:31;5.55;;;2.28;;
22786;SDS011;63134;52.020;4.714;2023-07-16T12:13:16;5.50;;;2.08;;
22786;SDS011;63134;52.020;4.714;2023-07-16T12:16:02;5.90;;;2.20;;
22786;SDS011;63134;52.020;4.714;2023-07-16T12:18:47;5.18;;;2.22;;
22786;SDS011;63134;52.020;4.714;2023-07-16T12:21:33;6.30;;;2.40;;
22786;SDS011;63134;52.020;4.714;2023-07-16T12:24:18;6.05;;;2.72;;
22786;SDS011;63134;52.020;4.714;2023-07-16T12:27:04;8.10;;;2.20;;
22786;SDS011;63134;52.020;4.714;2023-07-16T12:29:51;8.43;;;2.20;;
22786;SDS011;63134;52.020;4.714;2023-07-16T12:32:37;5.03;;;1.92;;
22786;SDS011;63134;52.020;4.714;2023-07-16T12:35:23;8.13;;;2.10;;
22786;SDS011;63134;52.020;4.714;2023-07-16T12:38:08;6.53;;;1.98;;
22786;SDS011;63134;52.020;4.714;2023-07-16T12:40:54;3.95;;;1.90;;
22786;SDS011;63134;52.020;4.714;2023-07-16T12:43:39;6.88;;;2.38;;
22786;SDS011;63134;52.020;4.714;2023-07-16T12:46:25;4.45;;;1.90;;
22786;SDS011;63134;52.020;4.714;2023-07-16T12:49:11;5.82;;;2.22;;
22786;SDS011;63134;52.020;4.714;2023-07-16T12:51:57;5.85;;;1.80;;
22786;SDS011;63134;52.020;4.714;2023-07-16T12:54:42;4.72;;;1.70;;
22786;SDS011;63134;52.020;4.714;2023-07-16T12:57:27;7.03;;;2.00;;
22786;SDS011;63134;52.020;4.714;2023-07-16T13:00:16;8.57;;;2.58;;
22786;SDS011;63134;52.020;4.714;2023-07-16T13:03:01;9.85;;;2.58;;
22786;SDS011;63134;52.020;4.714;2023-07-16T13:05:48;6.80;;;1.85;;
22786;SDS011;63134;52.020;4.714;2023-07-16T13:08:33;11.07;;;2.17;;
22786;SDS011;63134;52.020;4.714;2023-07-16T13:11:20;6.97;;;2.17;;
22786;SDS011;63134;52.020;4.714;2023-07-16T13:14:06;7.22;;;2.45;;
22786;SDS011;63134;52.020;4.714;2023-07-16T13:16:51;6.05;;;2.20;;
22786;SDS011;63134;52.020;4.714;2023-07-16T13:19:38;6.18;;;1.92;;
22786;SDS011;63134;52.020;4.714;2023-07-16T13:22:24;8.80;;;2.10;;
22786;SDS011;63134;52.020;4.714;2023-07-16T13:25:10;6.13;;;1.83;;
22786;SDS011;63134;52.020;4.714;2023-07-16T13:27:56;7.13;;;1.88;;
22786;SDS011;63134;52.020;4.714;2023-07-16T13:30:42;7.72;;;2.20;;
22786;SDS011;63134;52.020;4.714;2023-07-16T13:33:27;5.35;;;2.30;;
22786;SDS011;63134;52.020;4.714;2023-07-16T13:36:13;9.07;;;2.33;;
22786;SDS011;63134;52.020;4.714;2023-07-16T13:38:58;7.38;;;1.90;;
22786;SDS011;63134;52.020;4.714;2023-07-16T13:41:48;9.52;;;2.47;;
22786;SDS011;63134;52.020;4.714;2023-07-16T13:44:33;7.30;;;1.98;;
22786;SDS011;63134;52.020;4.714;2023-07-16T13:47:19;5.55;;;2.08;;
22786;SDS011;63134;52.020;4.714;2023-07-16T13:50:06;8.60;;;2.28;;
22786;SDS011;63134;52.020;4.714;2023-07-16T13:52:52;5.20;;;1.88;;
22786;SDS011;63134;52.020;4.714;2023-07-16T13:55:37;5.13;;;2.03;;
22786;SDS011;63134;52.020;4.714;2023-07-16T13:58:25;7.03;;;1.95;;
22786;SDS011;63134;52.020;4.714;2023-07-16T14:01:10;7.88;;;2.17;;
22786;SDS011;63134;52.020;4.714;2023-07-16T14:03:56;5.78;;;2.20;;
22786;SDS011;63134;52.020;4.714;2023-07-16T14:06:42;6.95;;;2.47;;
22786;SDS011;63134;52.020;4.714;2023-07-16T14:09:27;9.07;;;2.58;;
22786;SDS011;63134;52.020;4.714;2023-07-16T14:12:12;7.93;;;2.67;;
22786;SDS011;63134;52.020;4.714;2023-07-16T14:14:58;8.48;;;2.53;;
22786;SDS011;63134;52.020;4.714;2023-07-16T14:17:44;8.43;;;2.33;;
22786;SDS011;63134;52.020;4.714;2023-07-16T14:20:29;7.47;;;2.25;;
22786;SDS011;63134;52.020;4.714;2023-07-16T14:23:15;8.95;;;2.53;;
22786;SDS011;63134;52.020;4.714;2023-07-16T14:26:00;10.60;;;2.80;;
22786;SDS011;63134;52.020;4.714;2023-07-16T14:28:47;4.63;;;2.25;;
22786;SDS011;63134;52.020;4.714;2023-07-16T14:31:32;7.60;;;2.25;;
22786;SDS011;63134;52.020;4.714;2023-07-16T14:34:18;12.65;;;3.15;;
22786;SDS011;63134;52.020;4.714;2023-07-16T14:37:06;8.00;;;2.55;;
22786;SDS011;63134;52.020;4.714;2023-07-16T14:39:51;9.52;;;2.50;;
22786;SDS011;63134;52.020;4.714;2023-07-16T14:42:37;7.97;;;2.78;;
22786;SDS011;63134;52.020;4.714;2023-07-16T14:45:23;6.95;;;2.60;;
22786;SDS011;63134;52.020;4.714;2023-07-16T14:48:09;7.47;;;2.28;;
22786;SDS011;63134;52.020;4.714;2023-07-16T14:50:56;9.52;;;2.25;;
22786;SDS011;63134;52.020;4.714;2023-07-16T14:53:42;8.25;;;2.80;;
22786;SDS011;63134;52.020;4.714;2023-07-16T14:56:28;11.73;;;2.58;;
22786;SDS011;63134;52.020;4.714;2023-07-16T14:59:13;9.57;;;3.22;;
22786;SDS011;63134;52.020;4.714;2023-07-16T15:01:59;7.50;;;2.70;;
22786;SDS011;63134;52.020;4.714;2023-07-16T15:04:45;9.05;;;2.80;;
22786;SDS011;63134;52.020;4.714;2023-07-16T15:07:30;8.65;;;2.75;;
22786;SDS011;63134;52.020;4.714;2023-07-16T15:10:16;8.18;;;2.67;;
22786;SDS011;63134;52.020;4.714;2023-07-16T15:13:02;11.38;;;2.90;;
22786;SDS011;63134;52.020;4.714;2023-07-16T15:15:48;5.93;;;2.30;;
22786;SDS011;63134;52.020;4.714;2023-07-16T15:18:34;12.15;;;2.88;;
22786;SDS011;63134;52.020;4.714;2023-07-16T15:21:19;5.55;;;2.17;;
22786;SDS011;63134;52.020;4.714;2023-07-16T15:24:08;9.77;;;2.88;;
22786;SDS011;63134;52.020;4.714;2023-07-16T15:26:53;10.43;;;2.88;;
22786;SDS011;63134;52.020;4.714;2023-07-16T15:29:40;8.95;;;2.65;;
22786;SDS011;63134;52.020;4.714;2023-07-16T15:32:26;7.95;;;2.90;;
22786;SDS011;63134;52.020;4.714;2023-07-16T15:35:11;9.02;;;3.10;;
22786;SDS011;63134;52.020;4.714;2023-07-16T15:37:57;9.60;;;2.88;;
22786;SDS011;63134;52.020;4.714;2023-07-16T15:40:48;12.85;;;3.38;;
22786;SDS011;63134;52.020;4.714;2023-07-16T15:43:33;7.32;;;2.88;;
22786;SDS011;63134;52.020;4.714;2023-07-16T15:46:19;11.23;;;2.80;;
22786;SDS011;63134;52.020;4.714;2023-07-16T15:49:04;8.73;;;2.88;;
22786;SDS011;63134;52.020;4.714;2023-07-16T15:51:50;7.57;;;2.35;;
22786;SDS011;63134;52.020;4.714;2023-07-16T15:54:35;7.82;;;3.15;;
22786;SDS011;63134;52.020;4.714;2023-07-16T15:57:21;9.70;;;3.20;;
22786;SDS011;63134;52.020;4.714;2023-07-16T16:00:07;9.93;;;2.90;;
22786;SDS011;63134;52.020;4.714;2023-07-16T16:02:59;8.77;;;2.90;;
22786;SDS011;63134;52.020;4.714;2023-07-16T16:05:48;11.55;;;3.25;;
22786;SDS011;63134;52.020;4.714;2023-07-16T16:08:34;11.88;;;2.97;;
22786;SDS011;63134;52.020;4.714;2023-07-16T16:11:20;8.98;;;2.97;;
22786;SDS011;63134;52.020;4.714;2023-07-16T16:14:07;9.38;;;2.70;;
22786;SDS011;63134;52.020;4.714;2023-07-16T16:16:54;9.38;;;2.47;;
22786;SDS011;63134;52.020;4.714;2023-07-16T16:19:51;6.70;;;2.75;;
22786;SDS011;63134;52.020;4.714;2023-07-16T16:22:37;6.78;;;2.53;;
22786;SDS011;63134;52.020;4.714;2023-07-16T16:25:23;7.88;;;2.20;;
22786;SDS011;63134;52.020;4.714;2023-07-16T16:28:09;7.53;;;2.92;;
22786;SDS011;63134;52.020;4.714;2023-07-16T16:30:55;8.50;;;2.78;;
22786;SDS011;63134;52.020;4.714;2023-07-16T16:33:41;9.13;;;2.50;;
22786;SDS011;63134;52.020;4.714;2023-07-16T16:36:26;7.05;;;2.45;;